Time;durP1;ratioP1;P1;durP2;ratioP2;P2;SDS_P1;SDS_P2;PMS_P1;PMS_P2;Temp;Humidity;BMP_temperature;BMP_pressure;BME280_temperature;BME280_humidity;BME280_pressure;Samples;Min_cycle;Max_cycle;Signal;HPM_P1;HPM_P2
2022/11/07 00:01:45;;;;;;;10.32;3.88;;;10.60;99.90;;;;;;5133998;27;20047;-70
2022/11/07 00:04:11;;;;;;;11.52;4.68;;;10.70;99.90;;;;;;5133616;28;20039;-71
2022/11/07 00:06:37;;;;;;;10.20;4.45;;;10.70;99.90;;;;;;5133736;28;20050;-69
2022/11/07 00:09:03;;;;;;;12.13;4.15;;;10.80;99.90;;;;;;5098254;28;20054;-69
2022/11/07 00:11:28;;;;;;;11.93;4.75;;;10.80;99.90;;;;;;5098142;28;20051;-69
2022/11/07 00:13:54;;;;;;;11.05;4.85;;;10.80;99.90;;;;;;5133489;28;20050;-70
2022/11/07 00:16:20;;;;;;;12.55;4.55;;;10.90;99.90;;;;;;5099110;28;20078;-70
2022/11/07 00:18:52;;;;;;;14.77;4.95;;;10.90;99.90;;;;;;5133533;28;20096;-71
2022/11/07 00:21:18;;;;;;;8.40;3.97;;;10.90;99.90;;;;;;5115345;28;20046;-70
2022/11/07 00:23:43;;;;;;;11.82;4.20;;;10.90;99.90;;;;;;5133413;27;20527;-69
2022/11/07 00:26:11;;;;;;;12.68;5.05;;;10.90;99.90;;;;;;5118885;27;20092;-72
2022/11/07 00:28:39;;;;;;;11.07;4.38;;;10.90;99.90;;;;;;5119242;27;20435;-67
2022/11/07 00:31:06;;;;;;;9.50;4.32;;;10.80;99.90;;;;;;5118858;27;20051;-70
2022/11/07 00:33:32;;;;;;;;;;;10.80;99.90;;;;;;5137551;27;20079;-68
2022/11/07 00:35:58;;;;;;;14.93;4.70;;;10.70;99.90;;;;;;5136149;27;19926;-70
2022/11/07 00:38:23;;;;;;;12.13;5.20;;;10.70;99.90;;;;;;5137241;27;20084;-70
2022/11/07 00:41:04;;;;;;;11.20;4.70;;;10.70;99.90;;;;;;5102334;27;20054;-69
2022/11/07 00:43:31;;;;;;;13.23;4.82;;;10.70;99.90;;;;;;5118830;27;20051;-69
2022/11/07 00:45:59;;;;;;;13.05;3.97;;;10.70;99.90;;;;;;5137046;27;20049;-70
2022/11/07 00:48:25;;;;;;;15.25;4.63;;;10.60;99.90;;;;;;5118455;27;20051;-70
2022/11/07 00:50:51;;;;;;;9.05;3.85;;;10.60;99.90;;;;;;5136769;27;20092;-69
2022/11/07 00:53:16;;;;;;;7.82;3.85;;;10.50;99.90;;;;;;5102052;27;20039;-69
2022/11/07 00:55:42;;;;;;;11.75;4.38;;;10.40;99.90;;;;;;5101685;27;20332;-69
2022/11/07 00:58:09;;;;;;;10.43;3.97;;;10.40;99.90;;;;;;5136824;27;20078;-69
2022/11/07 01:00:35;;;;;;;11.27;4.37;;;10.40;99.90;;;;;;5101233;27;20055;-68
2022/11/07 01:06:00;;;;;;;10.93;4.10;;;10.40;99.90;;;;;;5121616;27;20382;-70
2022/11/07 01:08:27;;;;;;;13.10;4.15;;;10.40;99.90;;;;;;5136736;27;20126;-70
2022/11/07 01:10:53;;;;;;;11.50;4.03;;;10.40;99.90;;;;;;5137183;27;20347;-71
2022/11/07 01:13:19;;;;;;;11.23;3.90;;;10.40;99.90;;;;;;5118287;27;20043;-70
2022/11/07 01:15:45;;;;;;;10.13;4.10;;;10.40;99.90;;;;;;5136997;27;20289;-70
2022/11/07 01:18:11;;;;;;;12.90;4.10;;;10.50;99.90;;;;;;5136317;27;20047;-70
2022/11/07 01:20:37;;;;;;;10.23;3.90;;;10.60;99.90;;;;;;5084242;27;20047;-70
2022/11/07 01:23:03;;;;;;;11.38;3.92;;;10.60;99.90;;;;;;5136295;27;20495;-71
2022/11/07 01:25:28;;;;;;;11.02;3.05;;;10.70;99.90;;;;;;5135049;27;20043;-70
2022/11/07 01:27:54;;;;;;;9.38;3.55;;;10.80;99.90;;;;;;5135976;27;20054;-70
2022/11/07 01:30:20;;;;;;;8.32;3.72;;;10.80;99.90;;;;;;5117972;27;20386;-71
2022/11/07 01:32:46;;;;;;;8.48;4.10;;;10.90;99.90;;;;;;5117614;27;20082;-69
2022/11/07 01:35:11;;;;;;;10.55;3.58;;;10.90;99.90;;;;;;5135713;27;20140;-70
2022/11/07 01:37:37;;;;;;;14.57;3.75;;;11.00;99.90;;;;;;5117383;27;20141;-69
2022/11/07 01:40:03;;;;;;;9.90;3.40;;;11.00;99.90;;;;;;5117410;27;20475;-69
2022/11/07 01:42:29;;;;;;;10.27;3.45;;;11.10;99.90;;;;;;5100672;27;20100;-69
2022/11/07 01:44:59;;;;;;;15.52;3.88;;;11.20;99.90;;;;;;5136429;27;20391;-69
2022/11/07 01:47:37;;;;;;;12.98;3.55;;;11.20;99.90;;;;;;5135806;27;20039;-71
2022/11/07 01:50:06;;;;;;;14.20;3.50;;;11.20;99.90;;;;;;5136649;27;20426;-71
2022/11/07 01:52:38;;;;;;;11.00;3.40;;;11.20;99.90;;;;;;5135478;27;20492;-70
2022/11/07 01:55:07;;;;;;;10.35;3.45;;;11.20;99.90;;;;;;5135906;27;20051;-69
2022/11/07 01:57:44;;;;;;;8.15;3.40;;;11.20;99.90;;;;;;5117458;27;20448;-70
2022/11/07 02:00:13;;;;;;;8.77;3.08;;;11.20;99.90;;;;;;5117428;27;20142;-69
2022/11/07 02:02:40;;;;;;;14.82;3.33;;;11.20;99.90;;;;;;5116935;27;20483;-70
2022/11/07 02:05:07;;;;;;;14.20;3.42;;;11.20;99.90;;;;;;5117026;27;20041;-71
2022/11/07 02:07:34;;;;;;;12.15;4.03;;;11.20;99.90;;;;;;5100323;27;20095;-70
2022/11/07 02:10:02;;;;;;;9.05;3.33;;;11.20;99.90;;;;;;5100072;27;20078;-70
2022/11/07 02:12:28;;;;;;;8.85;3.35;;;11.10;99.90;;;;;;5135280;27;20047;-71
2022/11/07 02:14:55;;;;;;;9.07;3.53;;;11.20;99.90;;;;;;5135116;27;20204;-69
2022/11/07 02:17:21;;;;;;;12.65;3.75;;;11.10;99.90;;;;;;5117226;27;20047;-69
2022/11/07 02:19:49;;;;;;;10.15;3.25;;;11.20;99.90;;;;;;5116701;27;20474;-70
2022/11/07 02:22:36;;;;;;;7.57;3.53;;;11.20;99.90;;;;;;5116865;27;20047;-70
2022/11/07 02:25:07;;;;;;;;;;;11.20;99.90;;;;;;5135345;27;20083;-68
2022/11/07 02:27:34;;;;;;;10.30;3.45;;;11.20;99.90;;;;;;5135316;27;19920;-70
2022/11/07 02:30:01;;;;;;;;;;;11.20;99.90;;;;;;5135391;27;20447;-71
2022/11/07 02:32:28;;;;;;;10.05;2.78;;;11.20;99.90;;;;;;5117224;27;19919;-71
2022/11/07 02:34:59;;;;;;;12.90;3.67;;;11.30;99.90;;;;;;5117194;27;20391;-70
2022/11/07 02:37:32;;;;;;;8.20;3.03;;;11.30;99.90;;;;;;5116357;27;20054;-69
2022/11/07 02:40:00;;;;;;;12.23;3.38;;;11.30;99.90;;;;;;5135358;27;20043;-69
2022/11/07 02:42:42;;;;;;;14.27;4.43;;;11.30;99.90;;;;;;5116773;27;20051;-70
2022/11/07 02:45:33;;;;;;;14.15;3.28;;;11.30;99.90;;;;;;5135102;27;20202;-70
2022/11/07 02:47:59;;;;;;;10.68;3.22;;;11.30;99.90;;;;;;5098955;27;20051;-71
2022/11/07 02:50:25;;;;;;;11.38;2.92;;;11.30;99.90;;;;;;5134442;27;20055;-69
2022/11/07 02:52:50;;;;;;;7.18;2.60;;;11.30;99.90;;;;;;5135104;27;20174;-70
2022/11/07 02:55:16;;;;;;;12.13;3.40;;;11.30;99.90;;;;;;5134439;27;20035;-70
2022/11/07 02:57:42;;;;;;;12.07;3.28;;;11.30;99.90;;;;;;5134888;27;20047;-73
2022/11/07 03:00:10;;;;;;;16.10;3.70;;;11.30;99.90;;;;;;5116696;27;20547;-69
2022/11/07 03:02:37;;;;;;;10.90;2.97;;;11.30;99.90;;;;;;5135077;27;20047;-70
2022/11/07 03:05:03;;;;;;;11.07;3.42;;;11.20;99.90;;;;;;5134223;27;20043;-69
2022/11/07 03:07:28;;;;;;;12.77;3.33;;;11.20;99.90;;;;;;5116021;27;20388;-68
2022/11/07 03:09:54;;;;;;;9.48;2.72;;;11.20;99.90;;;;;;5116767;27;20058;-72
2022/11/07 03:12:20;;;;;;;10.32;3.00;;;11.30;99.90;;;;;;5099087;27;20039;-69
2022/11/07 03:14:46;;;;;;;12.45;2.63;;;11.30;99.90;;;;;;5134171;27;20039;-70
2022/11/07 03:17:11;;;;;;;12.32;2.97;;;11.20;99.90;;;;;;5115982;28;20131;-70
2022/11/07 03:19:37;;;;;;;11.00;3.20;;;11.20;99.90;;;;;;5098855;27;20043;-69
2022/11/07 03:22:03;;;;;;;11.88;3.47;;;11.20;99.90;;;;;;5134002;27;20111;-71
2022/11/07 03:24:31;;;;;;;12.65;3.10;;;11.10;99.90;;;;;;5116290;27;20050;-72
2022/11/07 03:26:57;;;;;;;13.65;3.10;;;11.10;99.90;;;;;;5115785;27;20134;-70
2022/11/07 03:29:22;;;;;;;18.30;3.47;;;11.10;99.90;;;;;;5116154;27;20115;-69
2022/11/07 03:31:48;;;;;;;11.35;3.05;;;11.10;99.90;;;;;;5115461;28;20050;-70
2022/11/07 03:34:14;;;;;;;14.38;2.97;;;11.10;99.90;;;;;;5133338;27;20200;-75
2022/11/07 03:36:40;;;;;;;13.57;3.28;;;11.10;99.90;;;;;;5114758;28;20043;-74
2022/11/07 03:39:05;;;;;;;11.85;3.20;;;11.20;99.90;;;;;;5133331;27;20059;-76
2022/11/07 03:41:31;;;;;;;15.07;3.08;;;11.10;99.90;;;;;;5098679;28;20043;-75
2022/11/07 03:43:57;;;;;;;13.10;2.95;;;11.10;99.90;;;;;;5098290;28;20049;-75
2022/11/07 03:46:22;;;;;;;9.43;2.75;;;11.10;99.90;;;;;;5115606;28;20102;-74
2022/11/07 03:48:48;;;;;;;15.18;2.97;;;11.10;99.90;;;;;;5115799;28;20096;-74
2022/11/07 03:51:14;;;;;;;12.90;3.22;;;11.10;99.90;;;;;;5133097;28;20171;-74
2022/11/07 03:53:39;;;;;;;8.98;3.03;;;11.10;99.90;;;;;;5133835;28;20045;-74
2022/11/07 03:56:10;;;;;;;9.48;3.03;;;11.10;99.90;;;;;;5098700;28;20050;-74
2022/11/07 03:58:37;;;;;;;14.05;3.20;;;11.10;99.90;;;;;;5098440;28;20100;-74
2022/11/07 04:01:04;;;;;;;13.35;2.97;;;11.10;99.90;;;;;;5137615;27;20058;-74
2022/11/07 04:03:30;;;;;;;10.23;3.20;;;11.20;99.90;;;;;;5139581;27;20344;-74
2022/11/07 04:05:56;;;;;;;11.73;3.07;;;11.20;99.90;;;;;;5120659;27;20045;-74
2022/11/07 04:08:22;;;;;;;11.77;2.92;;;11.20;99.90;;;;;;5119290;27;20445;-73
2022/11/07 04:10:48;;;;;;;14.02;3.33;;;11.20;99.90;;;;;;5137365;27;20085;-76
2022/11/07 04:18:54;;;;;;;13.73;2.97;;;11.10;99.90;;;;;;5064518;27;20053;-74
2022/11/07 04:21:19;;;;;;;10.35;3.38;;;11.00;99.90;;;;;;5137361;27;20079;-73
2022/11/07 04:23:45;;;;;;;15.93;3.97;;;11.00;99.90;;;;;;5119047;27;20075;-73
2022/11/07 04:28:56;;;;;;;10.10;2.90;;;10.90;99.90;;;;;;5125882;27;20043;-74
2022/11/07 04:31:21;;;;;;;14.43;3.05;;;11.00;99.90;;;;;;5102861;27;20061;-73
2022/11/07 04:33:47;;;;;;;13.68;3.75;;;11.00;99.90;;;;;;5137517;27;20481;-74
2022/11/07 04:36:13;;;;;;;10.98;3.83;;;11.00;99.90;;;;;;5137260;27;20130;-75
2022/11/07 04:38:39;;;;;;;14.35;3.47;;;10.90;99.90;;;;;;5119256;27;20111;-75
2022/11/07 04:41:05;;;;;;;20.95;4.00;;;10.80;99.90;;;;;;5102700;27;20062;-73
2022/11/07 04:43:30;;;;;;;8.48;3.80;;;10.80;99.90;;;;;;5119957;27;20083;-74
2022/11/07 04:45:56;;;;;;;10.50;3.72;;;10.80;99.90;;;;;;5136698;27;20479;-76
2022/11/07 04:48:22;;;;;;;10.68;4.00;;;10.70;99.90;;;;;;5119302;27;20059;-76
2022/11/07 04:50:48;;;;;;;10.65;3.95;;;10.70;99.90;;;;;;5138798;27;20047;-75
2022/11/07 04:53:16;;;;;;;10.27;3.45;;;10.70;99.90;;;;;;5137338;27;20055;-76
2022/11/07 04:55:42;;;;;;;15.02;4.15;;;10.60;99.90;;;;;;5118577;27;20039;-75
2022/11/07 04:58:09;;;;;;;13.67;4.63;;;10.70;99.90;;;;;;5118345;27;20467;-74
2022/11/07 05:00:35;;;;;;;14.02;4.47;;;10.80;99.90;;;;;;5137029;27;20059;-73
2022/11/07 05:03:01;;;;;;;11.90;3.77;;;10.80;99.90;;;;;;5101541;27;20039;-74
2022/11/07 05:05:27;;;;;;;13.50;3.92;;;10.90;99.90;;;;;;5136002;27;20127;-73
2022/11/07 05:07:53;;;;;;;17.27;4.68;;;10.90;99.90;;;;;;5136585;27;20096;-77
2022/11/07 05:10:28;;;;;;;13.07;4.43;;;10.90;99.90;;;;;;5136053;27;20050;-74
2022/11/07 05:12:54;;;;;;;12.15;2.70;;;10.90;99.90;;;;;;5118142;27;20046;-77
2022/11/07 05:15:21;;;;;;;11.27;4.28;;;10.90;99.90;;;;;;5118255;27;20502;-72
2022/11/07 05:17:46;;;;;;;12.20;3.83;;;10.90;99.90;;;;;;5117808;27;20057;-73
2022/11/07 05:20:27;;;;;;;15.48;4.20;;;10.90;99.90;;;;;;5134575;27;20158;-71
2022/11/07 05:23:12;;;;;;;11.07;3.92;;;10.90;99.90;;;;;;5100969;27;20051;-74
2022/11/07 05:25:39;;;;;;;12.68;3.80;;;10.70;99.90;;;;;;5136311;27;20039;-74
2022/11/07 05:28:05;;;;;;;12.82;3.97;;;10.70;99.90;;;;;;5118921;27;20133;-74
2022/11/07 05:30:31;;;;;;;12.97;4.03;;;10.70;99.90;;;;;;5136105;27;20130;-73
2022/11/07 05:32:56;;;;;;;11.25;3.88;;;10.70;99.90;;;;;;5118064;27;20118;-74
2022/11/07 05:35:22;;;;;;;14.75;3.80;;;10.70;99.90;;;;;;5135996;27;20047;-75
2022/11/07 05:37:48;;;;;;;14.27;3.40;;;10.80;99.90;;;;;;5083850;27;20082;-73
2022/11/07 05:40:14;;;;;;;15.30;3.25;;;10.90;99.90;;;;;;5083795;27;20180;-73
2022/11/07 05:42:40;;;;;;;14.07;3.85;;;10.90;99.90;;;;;;5100474;27;20097;-75
2022/11/07 05:45:06;;;;;;;9.55;3.17;;;10.90;99.90;;;;;;5117099;27;20035;-72
2022/11/07 05:47:32;;;;;;;13.77;3.60;;;10.90;99.90;;;;;;5100632;27;20472;-73
2022/11/07 05:49:58;;;;;;;13.48;4.13;;;10.90;99.90;;;;;;5100880;27;20167;-74
2022/11/07 05:52:23;;;;;;;12.73;3.72;;;10.90;99.90;;;;;;5135949;27;20096;-73
2022/11/07 05:54:49;;;;;;;9.57;3.72;;;11.00;99.90;;;;;;5135626;27;20043;-73
2022/11/07 05:57:15;;;;;;;10.43;3.88;;;11.00;99.90;;;;;;5135591;27;20055;-73
2022/11/07 05:59:40;;;;;;;12.05;3.60;;;11.00;99.90;;;;;;5135084;27;20043;-74
2022/11/07 06:02:06;;;;;;;14.07;3.85;;;11.00;99.90;;;;;;5134256;27;20069;-76
2022/11/07 06:04:32;;;;;;;12.20;3.50;;;11.00;99.90;;;;;;5134922;27;20051;-76
2022/11/07 06:06:57;;;;;;;12.45;3.72;;;11.00;99.90;;;;;;5134753;27;20046;-76
2022/11/07 06:09:23;;;;;;;16.20;4.25;;;11.10;99.90;;;;;;5116682;27;20046;-75
2022/11/07 06:11:49;;;;;;;16.73;3.83;;;11.00;99.90;;;;;;5134533;27;20447;-74
2022/11/07 06:14:14;;;;;;;15.13;4.55;;;11.10;99.90;;;;;;5135231;27;20443;-74
2022/11/07 06:16:40;;;;;;;15.07;4.97;;;11.00;99.90;;;;;;5133609;27;20540;-72
2022/11/07 06:19:06;;;;;;;13.80;4.47;;;11.00;99.90;;;;;;5134554;27;20091;-73
2022/11/07 06:21:33;;;;;;;14.27;4.85;;;11.10;99.90;;;;;;5134302;27;20172;-74
2022/11/07 06:23:59;;;;;;;;;;;11.00;99.90;;;;;;5117070;27;20074;-73
2022/11/07 06:26:25;;;;;;;14.07;4.27;;;11.10;99.90;;;;;;5116865;27;20363;-75
2022/11/07 06:28:51;;;;;;;15.32;4.90;;;11.10;99.90;;;;;;5134461;27;20072;-74
2022/11/07 06:31:17;;;;;;;15.73;4.75;;;11.10;99.90;;;;;;5134642;27;20039;-73
2022/11/07 06:33:43;;;;;;;16.55;5.03;;;11.10;99.90;;;;;;5134802;27;20485;-74
2022/11/07 06:36:11;;;;;;;18.90;4.03;;;11.10;99.90;;;;;;5134536;27;20050;-74
2022/11/07 06:38:38;;;;;;;17.85;4.43;;;11.10;99.90;;;;;;5116813;27;20043;-73
2022/11/07 06:41:12;;;;;;;15.63;4.15;;;11.20;99.90;;;;;;5115966;27;20047;-75
2022/11/07 06:43:39;;;;;;;16.00;4.10;;;11.10;99.90;;;;;;5134835;27;20479;-76
2022/11/07 06:46:08;;;;;;;12.77;4.25;;;11.20;99.90;;;;;;5134756;27;20053;-75
2022/11/07 06:48:34;;;;;;;18.40;4.32;;;11.20;99.90;;;;;;5117385;27;20055;-74
2022/11/07 06:51:02;;;;;;;14.30;3.92;;;11.20;99.90;;;;;;5100207;27;20053;-73
2022/11/07 06:53:28;;;;;;;14.77;4.10;;;11.30;99.90;;;;;;5134108;27;20483;-73
2022/11/07 06:55:55;;;;;;;11.88;3.70;;;11.30;99.90;;;;;;5135016;27;20082;-73
2022/11/07 06:58:22;;;;;;;19.75;4.20;;;11.30;99.90;;;;;;5117395;27;20083;-74
2022/11/07 07:00:48;;;;;;;15.97;3.73;;;11.40;99.90;;;;;;5135394;27;20055;-74
2022/11/07 07:03:14;;;;;;;17.63;3.72;;;11.30;99.90;;;;;;5098951;27;20289;-76
2022/11/07 07:05:40;;;;;;;14.35;3.58;;;11.30;99.90;;;;;;5117193;27;20090;-74
2022/11/07 07:08:06;;;;;;;14.07;3.60;;;11.30;99.90;;;;;;5115619;27;20191;-77
2022/11/07 07:10:41;;;;;;;14.68;3.83;;;11.30;99.90;;;;;;5134053;27;20058;-74
2022/11/07 07:13:07;;;;;;;12.15;3.75;;;11.40;99.90;;;;;;5133881;27;20081;-74
2022/11/07 07:15:33;;;;;;;14.32;3.50;;;11.40;99.90;;;;;;5115712;27;20043;-73
2022/11/07 07:18:00;;;;;;;15.80;3.67;;;11.40;99.90;;;;;;5133933;27;20057;-74
2022/11/07 07:20:27;;;;;;;13.43;4.10;;;11.40;99.90;;;;;;5134116;27;20418;-74
2022/11/07 07:22:52;;;;;;;14.43;3.25;;;11.50;99.90;;;;;;5115567;27;20075;-73
2022/11/07 07:25:18;;;;;;;13.77;3.75;;;11.40;99.90;;;;;;5116390;27;20092;-74
2022/11/07 07:27:44;;;;;;;21.05;4.03;;;11.40;99.90;;;;;;5134027;27;20179;-76
2022/11/07 07:30:10;;;;;;;16.17;3.88;;;11.50;99.90;;;;;;5132449;27;20096;-76
2022/11/07 07:32:37;;;;;;;13.60;3.70;;;11.60;99.90;;;;;;5133459;27;20131;-73
2022/11/07 07:35:03;;;;;;;17.65;3.80;;;11.70;99.90;;;;;;5115107;27;20054;-74
2022/11/07 07:37:29;;;;;;;16.83;3.92;;;11.70;99.90;;;;;;5097955;28;20043;-75
2022/11/07 07:39:55;;;;;;;14.93;3.35;;;11.80;99.90;;;;;;5115121;27;20471;-75
2022/11/07 07:42:21;;;;;;;19.50;3.75;;;11.80;99.90;;;;;;5115041;28;20039;-74
2022/11/07 07:44:55;;;;;;;14.77;3.30;;;11.80;99.90;;;;;;5115884;28;20043;-75
2022/11/07 07:47:21;;;;;;;12.23;3.55;;;11.80;99.90;;;;;;5116273;28;20082;-72
2022/11/07 07:49:50;;;;;;;13.75;3.33;;;11.80;99.90;;;;;;5133378;28;20047;-73
2022/11/07 07:52:16;;;;;;;14.48;3.00;;;11.90;99.90;;;;;;5133275;28;20036;-74
2022/11/07 07:54:41;;;;;;;16.02;3.30;;;11.90;99.90;;;;;;5133392;28;20054;-74
2022/11/07 07:57:07;;;;;;;16.25;3.22;;;11.90;99.90;;;;;;5133106;28;20447;-74
2022/11/07 07:59:36;;;;;;;14.00;2.85;;;12.00;99.90;;;;;;5132841;27;20043;-72
2022/11/07 08:02:01;;;;;;;14.35;3.67;;;12.00;99.90;;;;;;5095605;28;20197;-73
2022/11/07 08:04:27;;;;;;;10.50;2.78;;;12.10;99.90;;;;;;5112642;28;20086;-74
2022/11/07 08:06:53;;;;;;;16.58;3.03;;;12.00;99.90;;;;;;5094554;28;20063;-73
2022/11/07 08:09:19;;;;;;;11.88;2.80;;;12.00;99.90;;;;;;5112733;28;20044;-75
2022/11/07 08:11:44;;;;;;;19.35;3.17;;;12.00;99.90;;;;;;5128517;28;20055;-73
2022/11/07 08:14:10;;;;;;;16.65;2.90;;;12.10;99.90;;;;;;5111706;28;20051;-72
2022/11/07 08:16:36;;;;;;;16.35;2.90;;;12.10;99.90;;;;;;5094716;28;20051;-72
2022/11/07 08:19:02;;;;;;;16.42;2.88;;;12.10;99.90;;;;;;5112620;28;20118;-74
2022/11/07 08:21:27;;;;;;;12.77;2.80;;;12.10;99.90;;;;;;5095075;28;20108;-74
2022/11/07 08:23:53;;;;;;;17.33;2.95;;;12.20;99.90;;;;;;5111389;28;20079;-73
2022/11/07 08:26:19;;;;;;;14.55;2.70;;;12.20;99.90;;;;;;5111965;28;20055;-74
2022/11/07 08:28:45;;;;;;;14.27;2.97;;;12.20;99.90;;;;;;5128885;28;20044;-75
2022/11/07 08:31:12;;;;;;;13.18;2.30;;;12.30;99.90;;;;;;5111049;28;20052;-73
2022/11/07 08:33:38;;;;;;;13.10;3.37;;;12.20;99.90;;;;;;5111025;28;20047;-75
2022/11/07 08:36:05;;;;;;;21.55;3.38;;;12.30;99.90;;;;;;5112662;28;20083;-76
2022/11/07 08:38:32;;;;;;;15.55;2.97;;;12.30;99.90;;;;;;5112465;28;20068;-75
2022/11/07 08:40:59;;;;;;;9.75;2.50;;;12.30;99.90;;;;;;5111226;28;20048;-73
2022/11/07 08:43:25;;;;;;;12.27;2.53;;;12.30;99.90;;;;;;5112043;28;20064;-73
2022/11/07 08:45:54;;;;;;;13.35;2.78;;;12.30;99.90;;;;;;5112508;28;20040;-74
2022/11/07 08:48:21;;;;;;;14.25;2.50;;;12.30;99.90;;;;;;5115813;28;20047;-74
2022/11/07 08:50:54;;;;;;;12.75;2.20;;;12.30;99.90;;;;;;5097805;28;20056;-72
2022/11/07 08:53:20;;;;;;;19.88;2.60;;;12.30;99.90;;;;;;5114757;28;20044;-75
2022/11/07 08:55:46;;;;;;;17.40;3.20;;;12.40;99.90;;;;;;5116652;27;20048;-77
2022/11/07 08:58:13;;;;;;;17.05;3.03;;;12.30;99.90;;;;;;5115087;28;20472;-74
2022/11/07 09:00:39;;;;;;;15.35;2.80;;;12.40;99.90;;;;;;5116318;27;20112;-75
2022/11/07 09:03:07;;;;;;;9.32;1.85;;;12.50;99.90;;;;;;5118554;27;20051;-74
2022/11/07 09:05:34;;;;;;;13.55;2.50;;;12.50;99.90;;;;;;5117681;27;20043;-75
2022/11/07 09:08:00;;;;;;;11.52;2.25;;;12.60;99.90;;;;;;5117807;27;20053;-75
2022/11/07 09:10:25;;;;;;;13.75;2.55;;;12.70;99.90;;;;;;5136313;27;20047;-74
2022/11/07 09:12:51;;;;;;;11.68;2.63;;;12.80;99.90;;;;;;5118719;27;20132;-73
2022/11/07 09:15:18;;;;;;;12.40;2.20;;;12.80;99.90;;;;;;5118820;27;20055;-76
2022/11/07 09:17:47;;;;;;;9.38;2.55;;;12.90;99.90;;;;;;5136422;27;20050;-73
2022/11/07 09:20:13;;;;;;;23.40;2.28;;;13.10;99.90;;;;;;5136168;27;20138;-76
2022/11/07 09:22:39;;;;;;;10.57;2.50;;;13.10;99.90;;;;;;5137031;27;20420;-75
2022/11/07 09:25:05;;;;;;;13.25;2.40;;;13.20;99.90;;;;;;5118849;27;20079;-74
2022/11/07 09:27:31;;;;;;;15.68;3.28;;;13.30;99.90;;;;;;5117867;27;20069;-77
2022/11/07 09:29:57;;;;;;;14.57;2.53;;;13.30;99.90;;;;;;5118615;27;20047;-75
2022/11/07 09:32:23;;;;;;;12.13;2.42;;;13.30;99.90;;;;;;5135743;27;20035;-74
2022/11/07 09:34:49;;;;;;;9.45;2.20;;;13.40;99.90;;;;;;5135475;27;20051;-74
2022/11/07 09:37:14;;;;;;;15.00;3.00;;;13.40;99.90;;;;;;5135504;27;20047;-74
2022/11/07 09:39:40;;;;;;;13.90;2.40;;;13.50;99.90;;;;;;5135609;27;20057;-74
2022/11/07 09:42:31;;;;;;;14.52;2.85;;;13.50;99.90;;;;;;5135637;27;20126;-74
2022/11/07 09:44:59;;;;;;;10.70;2.50;;;13.50;99.90;;;;;;5135490;27;20047;-76
2022/11/07 09:47:44;;;;;;;15.07;2.88;;;13.50;99.90;;;;;;5135344;27;20141;-73
2022/11/07 09:50:16;;;;;;;18.25;2.90;;;13.50;99.90;;;;;;5136354;27;20076;-74
2022/11/07 09:53:02;;;;;;;11.55;2.58;;;13.40;99.90;;;;;;5137541;27;20126;-74
2022/11/07 09:55:42;;;;;;;12.15;2.50;;;13.30;99.90;;;;;;5136990;27;20200;-76
2022/11/07 09:58:17;;;;;;;14.50;2.70;;;;;;;;;;5136199;27;20039;-76
2022/11/07 10:00:42;;;;;;;11.98;2.40;;;13.20;99.90;;;;;;5135331;27;20386;-74
2022/11/07 10:03:08;;;;;;;14.48;2.72;;;13.30;99.90;;;;;;5116845;27;20100;-74
2022/11/07 10:05:45;;;;;;;8.60;2.05;;;;;;;;;;5135042;27;20449;-73
2022/11/07 10:08:56;;;;;;;15.80;2.60;;;13.40;99.90;;;;;;5135162;27;20051;-75
2022/11/07 10:11:33;;;;;;;12.68;2.22;;;13.50;99.90;;;;;;5095555;27;20482;-76
2022/11/07 10:14:12;;;;;;;9.95;2.25;;;13.60;99.90;;;;;;5135480;27;20047;-74
2022/11/07 10:17:00;;;;;;;11.43;2.88;;;13.70;99.90;;;;;;5116975;27;20467;-75
2022/11/07 10:19:38;;;;;;;12.65;2.63;;;13.80;99.90;;;;;;5135351;27;20144;-73
2022/11/07 10:22:22;;;;;;;13.43;2.88;;;13.90;99.90;;;;;;5134817;27;20043;-73
2022/11/07 10:24:57;;;;;;;15.55;2.75;;;13.90;99.90;;;;;;5134357;27;20174;-76
2022/11/07 10:27:22;;;;;;;14.30;3.05;;;13.90;99.90;;;;;;5116829;27;20356;-74
2022/11/07 10:29:52;;;;;;;18.02;3.03;;;13.90;99.90;;;;;;5099055;27;20047;-73
2022/11/07 10:32:28;;;;;;;11.88;2.70;;;13.90;99.90;;;;;;5134415;27;20043;-72
2022/11/07 10:35:14;;;;;;;13.80;2.42;;;14.00;99.90;;;;;;5135193;27;20395;-75
2022/11/07 10:37:40;;;;;;;13.27;2.72;;;14.10;99.90;;;;;;5134373;27;20093;-73
2022/11/07 10:40:17;;;;;;;13.18;2.10;;;14.20;99.90;;;;;;5134282;27;20042;-72
2022/11/07 10:42:44;;;;;;;14.70;2.25;;;14.30;99.90;;;;;;5116419;27;20051;-74
2022/11/07 10:45:15;;;;;;;12.90;2.63;;;14.50;99.90;;;;;;5135709;27;20047;-73
2022/11/07 10:47:40;;;;;;;16.30;2.85;;;14.50;99.90;;;;;;5084004;27;20035;-74
2022/11/07 10:50:19;;;;;;;13.13;2.85;;;14.70;99.90;;;;;;5100480;27;20100;-72
2022/11/07 10:53:17;;;;;;;16.30;2.78;;;14.90;99.90;;;;;;5116870;27;20427;-72
2022/11/07 10:55:46;;;;;;;15.52;3.65;;;14.80;99.90;;;;;;5114679;27;20416;-76
2022/11/07 10:58:22;;;;;;;10.63;2.90;;;14.80;99.90;;;;;;5117208;27;20479;-75
2022/11/07 11:01:09;;;;;;;9.48;2.83;;;14.80;99.90;;;;;;5134865;27;20050;-72
2022/11/07 11:03:43;;;;;;;12.98;2.55;;;14.80;99.90;;;;;;5116217;27;20116;-73
2022/11/07 11:06:17;;;;;;;12.68;2.45;;;14.80;99.90;;;;;;5134776;27;20426;-73
2022/11/07 11:08:48;;;;;;;12.60;2.65;;;14.70;99.90;;;;;;5135239;27;20498;-74
2022/11/07 11:11:20;;;;;;;11.32;2.47;;;14.70;99.90;;;;;;5116233;27;20087;-74
2022/11/07 11:13:47;;;;;;;15.00;2.42;;;14.60;99.90;;;;;;5115988;27;20420;-75
2022/11/07 11:16:14;;;;;;;;;;;14.50;99.90;;;;;;5134543;27;20378;-75
2022/11/07 11:18:55;;;;;;;10.70;2.50;;;14.40;99.90;;;;;;5133627;27;19919;-75
2022/11/07 11:21:22;;;;;;;9.20;2.53;;;14.40;99.90;;;;;;5133673;27;20047;-73
2022/11/07 11:23:49;;;;;;;10.35;2.03;;;14.50;99.90;;;;;;5098507;27;20108;-73
2022/11/07 11:26:29;;;;;;;13.98;3.03;;;14.70;99.90;;;;;;5081829;27;20134;-74
2022/11/07 11:28:58;;;;;;;15.70;3.03;;;14.80;99.90;;;;;;5133729;27;20049;-75
2022/11/07 11:31:35;;;;;;;11.93;2.92;;;14.90;99.90;;;;;;5133990;27;20414;-75
2022/11/07 11:34:10;;;;;;;13.65;2.72;;;15.10;99.90;;;;;;5114985;27;20412;-75
2022/11/07 11:36:43;;;;;;;12.02;2.88;;;15.10;99.90;;;;;;5134268;27;20080;-73
2022/11/07 11:39:25;;;;;;;13.20;2.72;;;15.10;99.90;;;;;;5116620;27;20475;-73
2022/11/07 11:41:58;;;;;;;14.68;2.85;;;14.90;99.90;;;;;;5115615;28;20469;-74
2022/11/07 11:44:30;;;;;;;11.32;2.40;;;14.90;99.90;;;;;;5134552;27;20142;-75
2022/11/07 11:47:16;;;;;;;15.98;3.08;;;14.80;99.90;;;;;;5115782;28;20051;-76
2022/11/07 11:49:52;;;;;;;11.18;2.85;;;15.00;99.90;;;;;;5135356;28;20043;-74
2022/11/07 11:52:24;;;;;;;18.02;2.72;;;14.90;99.90;;;;;;5135544;28;20095;-75
2022/11/07 11:54:53;;;;;;;13.90;3.22;;;15.00;99.90;;;;;;5118150;28;20047;-76
2022/11/07 11:57:41;;;;;;;11.18;2.75;;;14.80;99.90;;;;;;5135370;28;20095;-75
2022/11/07 12:00:13;;;;;;;10.60;2.38;;;14.80;99.90;;;;;;5116305;28;20451;-75
2022/11/07 12:02:54;;;;;;;13.57;2.67;;;14.90;99.90;;;;;;5112570;28;20052;-75
2022/11/07 12:05:58;;;;;;;7.72;2.55;;;15.00;99.90;;;;;;5117968;28;20056;-76
2022/11/07 12:08:44;;;;;;;11.95;2.22;;;14.90;99.90;;;;;;5123252;28;20429;-76
2022/11/07 12:11:22;;;;;;;16.08;2.60;;;15.00;99.90;;;;;;5122657;28;20184;-78
2022/11/07 12:14:05;;;;;;;11.77;3.13;;;14.90;99.90;;;;;;5099162;28;20040;-76
2022/11/07 12:16:45;;;;;;;13.15;2.65;;;14.80;99.90;;;;;;5115932;28;20044;-75
2022/11/07 12:19:26;;;;;;;15.25;2.72;;;14.90;99.90;;;;;;5115375;28;20043;-76
2022/11/07 12:22:00;;;;;;;10.00;2.42;;;14.80;99.90;;;;;;5118515;28;20048;-73
2022/11/07 12:24:44;;;;;;;12.85;3.22;;;14.80;99.90;;;;;;5105818;28;20051;-77
2022/11/07 12:27:33;;;;;;;9.60;2.75;;;14.90;99.90;;;;;;5125520;28;20044;-74
2022/11/07 12:30:44;;;;;;;12.30;2.65;;;15.00;99.90;;;;;;5122456;28;20483;-75
2022/11/07 12:33:30;;;;;;;10.13;2.08;;;15.00;99.90;;;;;;5119629;28;20126;-76
2022/11/07 12:36:01;;;;;;;11.90;2.87;;;15.10;99.90;;;;;;5101587;28;20035;-75
2022/11/07 12:39:16;;;;;;;11.25;2.30;;;15.00;99.90;;;;;;5116149;28;20475;-76
2022/11/07 12:42:01;;;;;;;16.05;3.05;;;15.10;99.90;;;;;;5060130;28;20193;-74
2022/11/07 12:44:32;;;;;;;12.85;2.92;;;15.00;99.90;;;;;;5117173;28;20464;-77
2022/11/07 12:47:19;;;;;;;8.38;2.47;;;15.10;99.90;;;;;;5116367;28;20192;-74
2022/11/07 12:50:01;;;;;;;11.90;2.75;;;14.90;99.90;;;;;;5119854;28;20414;-76
2022/11/07 12:53:00;;;;;;;12.60;3.38;;;14.80;99.90;;;;;;5120722;28;20051;-75
2022/11/07 12:55:29;;;;;;;11.52;2.90;;;14.80;99.90;;;;;;5109645;28;20448;-73
2022/11/07 12:57:55;;;;;;;14.07;2.65;;;14.80;99.90;;;;;;5116590;28;20055;-75
2022/11/07 13:00:26;;;;;;;12.98;3.08;;;14.70;99.90;;;;;;5116638;28;20039;-75
2022/11/07 13:03:10;;;;;;;11.02;2.70;;;14.70;99.90;;;;;;5114825;28;20153;-74
2022/11/07 13:06:06;;;;;;;9.77;3.50;;;14.60;99.90;;;;;;5116106;28;20044;-75